Time;durP1;ratioP1;P1;durP2;ratioP2;P2;SDS_P1;SDS_P2;PMS_P1;PMS_P2;Temp;Humidity;BMP_temperature;BMP_pressure;BME280_temperature;BME280_humidity;BME280_pressure;Samples;Min_cycle;Max_cycle;Signal;HPM_P1;HPM_P2
2021/08/26 00:06:58;;;;;;;1.10;0.25;;;;;;;15.54;75.36;99187.75;1689931;82;21428;-53
2021/08/26 00:09:24;;;;;;;0.33;0.30;;;;;;;15.52;75.27;99191.89;1692639;82;21100;-54
2021/08/26 00:11:53;;;;;;;0.90;0.30;;;;;;;15.52;75.23;99189.19;1693156;82;21196;-54
2021/08/26 00:14:19;;;;;;;0.30;0.20;;;;;;;15.52;75.27;99185.11;1687132;83;21112;-53
2021/08/26 00:16:47;;;;;;;0.88;0.20;;;;;;;15.55;75.27;99177.27;1687599;82;21121;-52
2021/08/26 00:19:13;;;;;;;0.23;0.20;;;;;;;15.56;75.25;99183.08;1690543;82;21836;-54
2021/08/26 00:21:41;;;;;;;0.82;0.20;;;;;;;15.57;75.26;99183.42;1690038;82;21344;-53
2021/08/26 00:24:08;;;;;;;3.37;1.10;;;;;;;15.58;75.28;99173.44;1690852;83;21550;-53
2021/08/26 00:26:35;;;;;;;0.62;0.30;;;;;;;15.60;75.25;99164.69;1697207;82;21474;-53
2021/08/26 00:29:03;;;;;;;0.20;0.20;;;;;;;15.59;75.27;99162.47;1689298;82;21132;-53
2021/08/26 00:31:30;;;;;;;0.33;0.30;;;;;;;15.60;75.23;99158.78;1691437;82;21714;-53
2021/08/26 00:33:56;;;;;;;0.20;0.20;;;;;;;15.59;75.20;99168.38;1686806;82;21058;-52
2021/08/26 00:36:23;;;;;;;0.68;0.20;;;;;;;15.59;75.26;99176.52;1690936;82;21080;-53
2021/08/26 00:38:50;;;;;;;0.40;0.30;;;;;;;15.58;75.29;99170.23;1693678;82;21119;-53
2021/08/26 00:41:17;;;;;;;2.42;0.20;;;;;;;15.58;75.33;99179.72;1688334;82;21145;-54
2021/08/26 00:43:43;;;;;;;0.20;0.20;;;;;;;15.60;75.41;99180.48;1692704;82;21262;-52
2021/08/26 00:46:13;;;;;;;3.52;0.20;;;;;;;15.61;75.45;99175.92;1689580;82;21495;-54
2021/08/26 00:48:42;;;;;;;0.90;0.20;;;;;;;15.63;75.48;99176.67;1689306;83;21378;-53
2021/08/26 00:51:10;;;;;;;1.55;0.20;;;;;;;15.65;75.54;99185.05;1690833;82;21069;-54
2021/08/26 00:53:39;;;;;;;0.55;0.30;;;;;;;15.67;75.52;99186.28;1691956;82;20994;-52
2021/08/26 00:56:08;;;;;;;0.20;0.20;;;;;;;15.67;75.49;99191.22;1693751;83;20920;-54
2021/08/26 00:58:34;;;;;;;2.20;0.30;;;;;;;15.69;75.51;99181.61;1689533;83;21167;-52
2021/08/26 01:01:02;;;;;;;0.20;0.20;;;;;;;15.71;75.53;99173.73;1689008;82;21399;-52
2021/08/26 01:03:44;;;;;;;0.20;0.20;;;;;;;15.71;75.40;99172.38;1691839;82;21773;-53
2021/08/26 01:06:25;;;;;;;0.20;0.20;;;;;;;15.72;75.38;99167.81;1705170;83;21543;-52
2021/08/26 01:09:05;;;;;;;1.65;0.20;;;;;;;15.70;75.33;99173.36;1705629;83;21112;-53
2021/08/26 01:11:35;;;;;;;0.20;0.20;;;;;;;15.69;75.47;99181.61;1708349;83;21443;-52
2021/08/26 01:14:03;;;;;;;0.30;0.20;;;;;;;15.68;75.49;99175.31;1704231;83;21053;-54
2021/08/26 01:16:29;;;;;;;1.30;0.30;;;;;;;15.70;75.47;99172.49;1702902;83;21155;-54
2021/08/26 01:18:56;;;;;;;1.32;0.28;;;;;;;15.69;75.48;99172.98;1698468;83;21077;-53
2021/08/26 01:21:23;;;;;;;0.30;0.23;;;;;;;15.70;75.47;99175.20;1707751;83;21319;-53
2021/08/26 01:23:54;;;;;;;1.25;0.30;;;;;;;15.69;75.46;99175.69;1706800;83;21672;-53
2021/08/26 01:26:27;;;;;;;1.82;0.30;;;;;;;15.70;75.49;99177.92;1704924;83;21333;-54
2021/08/26 01:28:54;;;;;;;0.20;0.20;;;;;;;15.71;75.39;99173.73;1703241;82;21648;-53
2021/08/26 01:31:21;;;;;;;1.40;0.20;;;;;;;15.72;75.35;99172.75;1697152;83;21401;-53
2021/08/26 01:33:54;;;;;;;0.23;0.20;;;;;;;15.73;75.35;99173.62;1688020;84;21635;-53
2021/08/26 01:36:26;;;;;;;0.30;0.20;;;;;;;15.75;75.34;99176.56;1703939;82;20994;-53
2021/08/26 01:38:53;;;;;;;0.30;0.25;;;;;;;15.77;75.24;99173.73;1691843;84;20999;-53
2021/08/26 01:41:19;;;;;;;0.20;0.20;;;;;;;15.76;75.24;99170.16;1679203;83;20965;-53
2021/08/26 01:43:47;;;;;;;0.10;0.10;;;;;;;15.78;75.20;99162.77;1690769;84;20994;-54
2021/08/26 01:46:17;;;;;;;0.20;0.20;;;;;;;15.81;75.24;99161.17;1706320;83;21738;-54
2021/08/26 01:48:47;;;;;;;0.55;0.20;;;;;;;15.82;75.21;99166.95;1687552;83;21380;-53
2021/08/26 01:51:13;;;;;;;1.47;0.20;;;;;;;15.82;75.14;99163.41;1703344;83;20894;-53
2021/08/26 01:53:39;;;;;;;0.57;0.20;;;;;;;15.82;75.04;99155.27;1688587;84;21017;-53
2021/08/26 01:56:06;;;;;;;1.45;0.20;;;;;;;15.81;75.01;99155.75;1692529;83;21046;-54
2021/08/26 01:58:32;;;;;;;1.67;0.20;;;;;;;15.79;75.03;99153.64;1697744;83;21776;-55
2021/08/26 02:01:00;;;;;;;0.20;0.20;;;;;;;15.79;75.02;99151.42;1695135;83;20907;-54
2021/08/26 02:03:26;;;;;;;0.50;0.23;;;;;;;15.77;75.06;99156.09;1696368;83;20923;-54
2021/08/26 02:05:53;;;;;;;0.25;0.20;;;;;;;15.76;75.16;99148.45;1693177;83;21540;-54
2021/08/26 02:08:19;;;;;;;1.42;0.20;;;;;;;15.77;75.25;99153.38;1701229;82;20970;-54
2021/08/26 02:10:45;;;;;;;0.10;0.10;;;;;;;15.77;75.39;99147.47;1700084;83;21115;-54
2021/08/26 02:13:12;;;;;;;0.70;0.20;;;;;;;15.79;75.49;99143.28;1768635;80;20950;-54
2021/08/26 02:15:39;;;;;;;0.82;0.20;;;;;;;15.82;75.50;99138.98;1762470;80;20903;-54
2021/08/26 02:19:01;;;;;;;0.20;0.20;;;;;;;15.89;75.55;99143.80;1792577;78;26895;-53
2021/08/26 02:21:28;;;;;;;0.42;0.20;;;;;;;15.87;75.57;99138.11;1768052;80;20969;-55
2021/08/26 02:23:55;;;;;;;0.80;0.20;;;;;;;15.88;75.56;99143.42;1768388;80;21191;-55
2021/08/26 02:26:22;;;;;;;0.28;0.20;;;;;;;15.89;75.53;99138.86;1766314;80;20909;-55
2021/08/26 02:28:49;;;;;;;1.42;0.30;;;;;;;15.87;75.52;99139.46;1767411;80;20969;-55
2021/08/26 02:31:15;;;;;;;1.05;0.20;;;;;;;15.85;75.55;99134.16;1766426;80;20875;-55
2021/08/26 02:33:41;;;;;;;0.33;0.20;;;;;;;15.85;75.60;99138.22;1767615;80;22146;-55
2021/08/26 02:36:08;;;;;;;1.77;0.20;;;;;;;15.84;75.63;99132.42;1767688;80;21367;-55
2021/08/26 02:38:34;;;;;;;0.28;0.20;;;;;;;15.84;75.70;99132.42;1769250;80;21109;-55
2021/08/26 02:41:00;;;;;;;0.30;0.20;;;;;;;15.83;75.76;99137.96;1769362;80;21012;-55
2021/08/26 02:43:26;;;;;;;1.72;0.28;;;;;;;15.83;75.88;99132.53;1771253;80;21061;-55
2021/08/26 02:45:53;;;;;;;0.33;0.30;;;;;;;15.83;75.83;99134.76;1767989;80;21041;-55
2021/08/26 02:48:19;;;;;;;0.82;0.30;;;;;;;15.82;75.82;99131.67;1767871;80;21113;-55
2021/08/26 02:50:46;;;;;;;3.10;0.20;;;;;;;15.82;75.90;99128.95;1767690;78;21078;-55
2021/08/26 02:53:12;;;;;;;3.00;0.30;;;;;;;15.84;75.97;99132.91;1763503;80;21074;-55
2021/08/26 02:55:40;;;;;;;2.37;0.30;;;;;;;15.83;75.96;99127.97;1770929;80;21443;-55
2021/08/26 02:58:07;;;;;;;0.25;0.25;;;;;;;15.82;75.84;99128.95;1769065;80;21544;-55
2021/08/26 03:00:33;;;;;;;2.65;0.20;;;;;;;15.82;75.92;99126.77;1767642;80;21142;-55
2021/08/26 03:02:59;;;;;;;1.15;0.20;;;;;;;15.82;76.07;99129.48;1772120;80;21540;-55
2021/08/26 03:05:26;;;;;;;2.50;0.23;;;;;;;15.82;76.16;99128.12;1772598;80;21060;-55
2021/08/26 03:07:54;;;;;;;1.40;0.30;;;;;;;15.80;76.21;99125.52;1770902;80;21245;-55
2021/08/26 03:10:22;;;;;;;1.80;0.20;;;;;;;15.81;76.34;99135.89;1768859;79;21032;-55
2021/08/26 03:12:48;;;;;;;0.70;0.20;;;;;;;15.81;76.49;99133.17;1764267;80;21141;-55
2021/08/26 03:15:15;;;;;;;0.40;0.20;;;;;;;15.81;76.57;99127.75;1766419;80;21053;-55
2021/08/26 03:17:43;;;;;;;2.95;0.30;;;;;;;15.82;76.60;99122.17;1765291;80;21058;-55
2021/08/26 03:20:11;;;;;;;1.40;0.30;;;;;;;15.83;76.58;99126.62;1764214;80;21053;-55
2021/08/26 03:22:37;;;;;;;0.80;0.37;;;;;;;15.85;76.61;99126.01;1769533;80;20931;-53
2021/08/26 03:25:05;;;;;;;0.55;0.40;;;;;;;15.84;76.62;99125.63;1762261;80;21529;-54
2021/08/26 03:27:32;;;;;;;3.40;0.50;;;;;;;15.84;76.63;99126.13;1763446;80;21020;-53
2021/08/26 03:29:59;;;;;;;0.53;0.40;;;;;;;15.82;76.66;99122.70;1764955;80;21017;-54
2021/08/26 03:32:26;;;;;;;0.50;0.30;;;;;;;15.81;76.71;99121.83;1764451;80;21574;-54
2021/08/26 03:34:52;;;;;;;0.40;0.30;;;;;;;15.81;76.71;99130.46;1763753;80;21108;-54
2021/08/26 03:37:18;;;;;;;2.67;0.30;;;;;;;15.80;76.73;99128.23;1762953;79;21223;-54
2021/08/26 03:39:45;;;;;;;3.72;0.28;;;;;;;15.79;76.69;99129.22;1763104;80;21021;-54
2021/08/26 03:42:11;;;;;;;1.67;0.30;;;;;;;15.80;76.72;99124.17;1757954;80;21305;-54
2021/08/26 03:44:37;;;;;;;0.60;0.30;;;;;;;15.81;76.78;99123.67;1761726;80;21517;-54
2021/08/26 03:47:03;;;;;;;0.25;0.25;;;;;;;15.82;76.82;99124.88;1763237;80;21057;-54
2021/08/26 03:49:30;;;;;;;1.25;0.40;;;;;;;15.85;76.82;99125.14;1759543;79;21138;-54
2021/08/26 03:51:56;;;;;;;4.03;0.30;;;;;;;15.85;76.85;99127.37;1760683;80;21697;-54
2021/08/26 03:54:23;;;;;;;5.90;0.33;;;;;;;15.87;76.88;99129.47;1758080;80;21411;-54
2021/08/26 03:56:49;;;;;;;1.12;0.40;;;;;;;15.88;76.87;99127.62;1763884;80;21899;-54
2021/08/26 03:59:16;;;;;;;2.80;0.40;;;;;;;15.90;76.85;99125.66;1759835;79;21413;-54
2021/08/26 04:01:42;;;;;;;0.55;0.37;;;;;;;15.89;76.83;99122.08;1763073;80;21131;-54
2021/08/26 04:04:08;;;;;;;0.53;0.50;;;;;;;15.92;76.81;99126.87;1766244;80;21133;-54
2021/08/26 04:06:35;;;;;;;0.40;0.40;;;;;;;15.90;76.69;99114.80;1764110;80;21112;-54
2021/08/26 04:09:01;;;;;;;1.15;0.50;;;;;;;15.92;76.69;99113.30;1762520;80;21050;-54
2021/08/26 04:11:27;;;;;;;2.22;0.40;;;;;;;15.92;76.70;99113.30;1764094;80;22157;-54
2021/08/26 04:13:53;;;;;;;0.88;0.40;;;;;;;15.93;76.56;99118.61;1763688;79;21542;-54
2021/08/26 04:16:21;;;;;;;0.53;0.40;;;;;;;15.94;76.56;99113.55;1761806;80;20962;-54
2021/08/26 04:18:47;;;;;;;0.50;0.50;;;;;;;15.94;76.59;99112.20;1746798;80;20922;-54
2021/08/26 04:21:13;;;;;;;0.88;0.60;;;;;;;15.95;76.63;99105.78;1735035;82;21057;-54
2021/08/26 04:23:40;;;;;;;1.22;0.40;;;;;;;15.96;76.63;99108.87;1736993;80;21088;-54
2021/08/26 04:26:06;;;;;;;3.33;0.40;;;;;;;15.96;76.56;99107.52;1735565;80;21706;-54
2021/08/26 04:28:34;;;;;;;1.10;0.40;;;;;;;15.97;76.62;99105.67;1729974;81;21573;-54
2021/08/26 04:31:00;;;;;;;1.15;0.45;;;;;;;15.97;76.61;99105.67;1734800;81;21057;-54
2021/08/26 04:33:27;;;;;;;1.85;0.50;;;;;;;15.97;76.47;99108.38;1736299;81;21141;-54
2021/08/26 04:35:53;;;;;;;0.70;0.50;;;;;;;15.96;76.53;99105.30;1736728;82;21043;-54
2021/08/26 04:38:19;;;;;;;1.55;0.90;;;;;;;15.96;76.54;99105.30;1736745;80;21211;-54
2021/08/26 04:40:45;;;;;;;0.70;0.57;;;;;;;15.96;76.55;99106.16;1738173;81;21432;-54
2021/08/26 04:43:12;;;;;;;0.70;0.60;;;;;;;15.97;76.48;99108.38;1740037;80;21049;-54
2021/08/26 04:45:38;;;;;;;0.95;0.57;;;;;;;15.99;76.50;99109.96;1731113;80;21041;-54
2021/08/26 04:48:05;;;;;;;0.68;0.60;;;;;;;16.01;76.51;99117.50;1736192;82;21089;-54
2021/08/26 04:50:32;;;;;;;0.78;0.60;;;;;;;16.03;76.55;99114.67;1736016;81;21129;-55
2021/08/26 04:52:58;;;;;;;0.68;0.60;;;;;;;16.05;76.52;99118.13;1737329;82;20885;-54
2021/08/26 04:55:25;;;;;;;0.90;0.60;;;;;;;16.08;76.57;99116.50;1738275;80;20914;-54
2021/08/26 04:57:51;;;;;;;0.90;0.65;;;;;;;16.11;76.52;99118.98;1737012;80;20985;-54
2021/08/26 05:00:17;;;;;;;1.67;0.60;;;;;;;16.12;76.46;99120.22;1741496;80;20993;-54
2021/08/26 05:02:43;;;;;;;1.37;0.70;;;;;;;16.15;76.42;99115.05;1731975;80;21778;-54
2021/08/26 05:05:11;;;;;;;0.75;0.60;;;;;;;16.17;76.26;99119.83;1738056;82;20965;-54
2021/08/26 05:07:39;;;;;;;1.05;0.50;;;;;;;16.17;76.05;99118.48;1734627;81;20940;-54
2021/08/26 05:10:08;;;;;;;1.17;0.50;;;;;;;16.17;75.98;99115.27;1731545;80;20933;-54
2021/08/26 05:12:34;;;;;;;0.62;0.50;;;;;;;16.17;75.82;99116.63;1737935;80;21240;-54
2021/08/26 05:15:03;;;;;;;6.83;1.10;;;;;;;16.19;75.89;99112.44;1730153;82;21554;-54
2021/08/26 05:17:30;;;;;;;1.70;0.70;;;;;;;16.21;76.23;99110.47;1738908;80;21803;-54
2021/08/26 05:19:56;;;;;;;2.05;1.00;;;;;;;16.22;76.67;99109.48;1754612;80;21074;-54
2021/08/26 05:22:23;;;;;;;18.15;3.10;;;;;;;16.24;76.57;99117.02;1745082;81;21042;-54
2021/08/26 05:24:51;;;;;;;1.57;0.60;;;;;;;16.28;77.27;99115.76;1743868;80;21113;-54
2021/08/26 05:27:19;;;;;;;0.47;0.40;;;;;;;16.30;77.40;99113.80;1745172;80;22158;-54
2021/08/26 05:29:45;;;;;;;2.17;0.50;;;;;;;16.31;77.26;99109.22;1683314;83;21050;-54
2021/08/26 05:32:12;;;;;;;2.65;0.50;;;;;;;16.32;77.17;99106.39;1754712;80;21396;-54
2021/08/26 05:34:40;;;;;;;3.42;0.60;;;;;;;16.33;76.95;99108.13;1751390;80;21358;-54
2021/08/26 05:37:06;;;;;;;1.82;0.60;;;;;;;16.34;76.95;99104.88;1746387;80;21057;-54
2021/08/26 05:39:34;;;;;;;2.00;0.53;;;;;;;16.35;76.97;99104.76;1748755;81;21119;-54
2021/08/26 05:42:01;;;;;;;0.78;0.60;;;;;;;16.36;76.89;99104.27;1745809;80;21073;-54
2021/08/26 05:44:27;;;;;;;2.87;0.60;;;;;;;16.38;76.84;99101.80;1742489;80;21551;-54
2021/08/26 05:46:54;;;;;;;0.85;0.50;;;;;;;16.40;76.72;99100.33;1742067;80;21076;-54
2021/08/26 05:49:20;;;;;;;1.00;0.55;;;;;;;16.41;76.68;99100.70;1752716;80;21042;-54
2021/08/26 05:51:46;;;;;;;1.80;0.60;;;;;;;16.43;76.63;99092.77;1751361;80;21098;-54
2021/08/26 05:54:13;;;;;;;1.10;0.60;;;;;;;16.47;76.69;99098.83;1750026;80;21040;-54
2021/08/26 05:56:39;;;;;;;0.62;0.60;;;;;;;16.47;76.57;99087.47;1746006;80;21505;-54
2021/08/26 05:59:06;;;;;;;1.00;0.70;;;;;;;16.49;76.38;99090.06;1746246;80;21081;-54
2021/08/26 06:01:33;;;;;;;0.60;0.60;;;;;;;16.49;76.04;99088.70;1749052;80;21060;-54
2021/08/26 06:03:59;;;;;;;1.27;0.50;;;;;;;16.49;76.11;99087.34;1741648;80;21112;-54
2021/08/26 06:06:27;;;;;;;0.93;0.60;;;;;;;16.49;75.97;99081.42;1676550;83;21098;-54
2021/08/26 06:08:54;;;;;;;0.50;0.50;;;;;;;16.50;76.05;99087.72;1755614;81;21065;-54
2021/08/26 06:11:20;;;;;;;2.05;0.45;;;;;;;16.50;75.89;99082.28;1746043;81;21036;-54
2021/08/26 06:13:47;;;;;;;0.70;0.53;;;;;;;16.49;75.76;99088.20;1704040;82;21496;-53
2021/08/26 06:16:15;;;;;;;1.22;0.60;;;;;;;16.49;75.96;99084.63;1701949;83;21100;-53
2021/08/26 06:18:41;;;;;;;1.07;0.65;;;;;;;16.47;76.06;99093.39;1746801;80;21073;-54
2021/08/26 06:21:10;;;;;;;0.62;0.62;;;;;;;16.46;76.11;99095.73;1757751;80;21067;-53
2021/08/26 06:23:37;;;;;;;1.50;0.50;;;;;;;16.44;76.41;99105.36;1758267;79;21416;-52
2021/08/26 06:26:04;;;;;;;1.27;0.50;;;;;;;16.43;76.79;99106.35;1762571;80;21532;-52
2021/08/26 06:28:30;;;;;;;1.87;0.50;;;;;;;16.44;77.09;99114.00;1758114;80;21113;-53
2021/08/26 06:30:56;;;;;;;1.80;0.50;;;;;;;16.44;77.23;99109.93;1752399;79;21070;-53
2021/08/26 06:33:22;;;;;;;0.47;0.47;;;;;;;16.42;77.35;99115.48;1701147;82;21190;-53
2021/08/26 06:35:49;;;;;;;0.78;0.50;;;;;;;16.43;77.56;99116.34;1754276;80;21092;-53
2021/08/26 06:38:15;;;;;;;0.50;0.50;;;;;;;16.45;77.63;99122.53;1731272;80;21097;-53
2021/08/26 06:40:41;;;;;;;2.40;0.75;;;;;;;16.46;77.69;99121.54;1722288;81;21110;-53
2021/08/26 06:43:07;;;;;;;3.50;0.70;;;;;;;16.48;77.88;99124.51;1751598;79;21298;-53
2021/08/26 06:45:34;;;;;;;0.80;0.70;;;;;;;16.50;77.66;99129.30;1753772;80;21100;-53
2021/08/26 06:48:00;;;;;;;0.70;0.70;;;;;;;16.52;77.71;99129.17;1753531;80;21583;-53
2021/08/26 06:50:27;;;;;;;0.72;0.72;;;;;;;16.54;77.78;99137.58;1752556;80;21106;-52
2021/08/26 06:52:53;;;;;;;0.70;0.50;;;;;;;16.56;77.83;99135.61;1752409;79;21869;-52
2021/08/26 06:55:20;;;;;;;0.57;0.50;;;;;;;16.58;77.82;99137.71;1751879;80;21713;-53
2021/08/26 06:57:46;;;;;;;0.90;0.60;;;;;;;16.58;77.79;99139.56;1754464;80;21110;-53
2021/08/26 07:00:14;;;;;;;4.17;0.62;;;;;;;16.60;77.92;99146.58;1754297;79;21073;-53
2021/08/26 07:02:41;;;;;;;3.35;0.50;;;;;;;16.62;78.08;99146.48;1749882;80;20978;-53
2021/08/26 07:05:08;;;;;;;0.60;0.50;;;;;;;16.64;77.96;99146.73;1749770;80;21055;-53
2021/08/26 07:07:36;;;;;;;1.92;0.55;;;;;;;16.66;77.87;99147.11;1753856;80;21723;-53
2021/08/26 07:10:05;;;;;;;3.25;0.60;;;;;;;16.67;77.91;99151.06;1748538;80;21086;-53
2021/08/26 07:12:33;;;;;;;2.17;0.95;;;;;;;16.67;77.97;99151.06;1751542;80;21157;-53
2021/08/26 07:15:00;;;;;;;0.62;0.60;;;;;;;16.68;78.03;99151.90;1754005;80;21102;-53
2021/08/26 07:17:27;;;;;;;0.88;0.70;;;;;;;16.69;78.02;99146.34;1755438;79;21865;-53
2021/08/26 07:19:53;;;;;;;1.90;0.70;;;;;;;16.69;77.91;99148.20;1756727;80;21356;-51
2021/08/26 07:22:19;;;;;;;1.20;0.65;;;;;;;16.69;77.83;99142.27;1759191;79;22159;-51
2021/08/26 07:24:46;;;;;;;0.60;0.60;;;;;;;16.69;77.64;99140.91;1758731;80;21551;-51
2021/08/26 07:27:12;;;;;;;0.50;0.50;;;;;;;16.69;77.59;99141.40;1761642;79;21098;-51
2021/08/26 07:29:38;;;;;;;2.62;0.68;;;;;;;16.70;77.71;99134.48;1757771;80;21496;-51
2021/08/26 07:32:05;;;;;;;0.70;0.70;;;;;;;16.72;77.73;99137.08;1765637;80;22113;-51
2021/08/26 07:34:32;;;;;;;0.85;0.70;;;;;;;16.71;77.59;99136.70;1762507;80;21444;-51
2021/08/26 07:36:59;;;;;;;1.27;0.70;;;;;;;16.72;77.68;99144.74;1763804;79;20884;-51
2021/08/26 07:39:25;;;;;;;2.75;0.78;;;;;;;16.72;77.84;99152.89;1766010;79;20903;-51
2021/08/26 07:41:51;;;;;;;0.60;0.60;;;;;;;16.71;77.88;99150.30;1765195;79;21122;-51
2021/08/26 07:44:18;;;;;;;1.32;0.65;;;;;;;16.69;77.97;99145.48;1771705;80;21014;-51
2021/08/26 07:46:44;;;;;;;0.72;0.62;;;;;;;16.69;77.98;99140.05;1760041;80;20947;-51
2021/08/26 07:49:10;;;;;;;0.87;0.70;;;;;;;16.68;78.06;99142.39;1764111;80;20969;-51
2021/08/26 07:51:37;;;;;;;1.30;0.60;;;;;;;16.68;77.96;99136.95;1760177;80;21277;-51
2021/08/26 07:54:03;;;;;;;0.62;0.60;;;;;;;16.67;77.88;99142.91;1763180;80;21478;-51
2021/08/26 07:56:31;;;;;;;1.45;0.65;;;;;;;16.68;77.54;99139.17;1764699;79;21474;-51
2021/08/26 07:58:58;;;;;;;0.80;0.70;;;;;;;16.70;77.50;99139.05;1727932;81;21835;-52
2021/08/26 08:01:24;;;;;;;0.70;0.70;;;;;;;16.72;77.57;99132.52;1764388;79;21373;-51
2021/08/26 08:03:51;;;;;;;2.25;0.70;;;;;;;16.74;77.56;99135.97;1761575;80;20919;-53
2021/08/26 08:06:18;;;;;;;0.78;0.70;;;;;;;16.75;77.60;99139.55;1769023;79;21153;-52
2021/08/26 08:08:44;;;;;;;1.27;0.70;;;;;;;16.75;77.83;99143.63;1754745;80;21653;-52
2021/08/26 08:11:11;;;;;;;0.78;0.60;;;;;;;16.76;77.65;99143.48;1756417;80;21064;-52
2021/08/26 08:13:39;;;;;;;2.00;0.60;;;;;;;16.76;77.66;99148.91;1755668;79;21546;-52
2021/08/26 08:16:06;;;;;;;0.80;0.60;;;;;;;16.77;77.73;99149.28;1755584;80;21738;-52
2021/08/26 08:18:32;;;;;;;1.12;0.70;;;;;;;16.78;77.85;99144.22;1761246;80;21623;-53
2021/08/26 08:21:01;;;;;;;1.07;0.78;;;;;;;16.79;78.05;99143.73;1752880;79;21113;-53
2021/08/26 08:23:30;;;;;;;4.10;0.60;;;;;;;16.80;78.12;99140.02;1750508;80;21518;-53
2021/08/26 08:25:56;;;;;;;0.60;0.60;;;;;;;16.81;78.07;99142.62;1751429;80;21887;-53
2021/08/26 08:28:23;;;;;;;0.70;0.70;;;;;;;16.84;78.07;99140.16;1754760;80;21502;-53
2021/08/26 08:30:51;;;;;;;0.80;0.78;;;;;;;16.86;78.18;99138.14;1751517;80;21022;-52
2021/08/26 08:33:17;;;;;;;0.72;0.70;;;;;;;16.86;78.04;99143.09;1752901;80;21088;-52
2021/08/26 08:35:45;;;;;;;2.33;0.70;;;;;;;16.85;77.85;99151.36;1753047;80;21042;-52
2021/08/26 08:38:11;;;;;;;2.98;0.60;;;;;;;16.86;77.91;99149.02;1750504;80;21080;-52
2021/08/26 08:40:39;;;;;;;1.40;0.90;;;;;;;16.85;77.82;99154.08;1754577;80;21414;-52
2021/08/26 08:43:05;;;;;;;0.60;0.53;;;;;;;16.85;77.88;99164.95;1756707;80;21133;-52
2021/08/26 08:45:32;;;;;;;0.60;0.60;;;;;;;16.84;77.83;99151.02;1720322;82;20965;-53
2021/08/26 08:47:58;;;;;;;2.22;0.80;;;;;;;16.83;77.85;99160.16;1754246;80;22268;-52
2021/08/26 08:50:26;;;;;;;0.70;0.65;;;;;;;16.81;77.74;99162.14;1748122;80;21436;-52
2021/08/26 08:52:53;;;;;;;1.70;0.75;;;;;;;16.80;77.81;99160.41;1756223;80;21458;-52
2021/08/26 08:55:20;;;;;;;1.40;0.80;;;;;;;16.76;77.61;99159.78;1753333;80;21214;-52
2021/08/26 08:57:46;;;;;;;1.00;0.90;;;;;;;16.75;77.68;99158.09;1755846;80;21022;-52
2021/08/26 09:00:17;;;;;;;1.32;1.20;;;;;;;16.75;77.74;99143.63;1747235;79;21145;-52
2021/08/26 09:02:44;;;;;;;0.75;0.75;;;;;;;16.75;77.75;99147.22;1767074;80;21117;-51
2021/08/26 09:05:10;;;;;;;1.12;0.70;;;;;;;16.74;77.67;99148.20;1761308;80;21062;-51
2021/08/26 09:07:37;;;;;;;0.80;0.80;;;;;;;16.74;77.62;99145.48;1754894;80;21134;-51
2021/08/26 09:10:08;;;;;;;1.27;0.70;;;;;;;16.73;77.67;99150.55;1763815;80;21670;-51
2021/08/26 09:12:49;;;;;;;0.70;0.70;;;;;;;16.74;77.35;99145.98;1753073;80;21027;-52
2021/08/26 09:15:29;;;;;;;0.80;0.80;;;;;;;16.72;77.42;99149.31;1760280;80;22308;-51
2021/08/26 09:19:42;;;;;;;1.30;0.90;;;;;;;16.74;77.47;99142.77;1777201;78;28130;-53
2021/08/26 09:22:06;;;;;;;1.10;1.10;;;;;;;16.65;77.56;99143.53;1742433;80;21010;-53
2021/08/26 09:24:45;;;;;;;0.90;0.70;;;;;;;16.65;77.74;99146.25;1745668;80;21985;-51
2021/08/26 09:27:14;;;;;;;1.25;0.50;;;;;;;16.63;77.72;99146.37;1722958;81;20957;-53
2021/08/26 09:30:00;;;;;;;0.53;0.50;;;;;;;16.62;77.71;99142.41;1690693;82;21046;-52
2021/08/26 09:32:59;;;;;;;0.60;0.60;;;;;;;16.61;77.85;99144.75;1699259;83;21053;-53
2021/08/26 09:35:31;;;;;;;0.50;0.40;;;;;;;16.61;77.95;99151.55;1692558;82;21431;-52
2021/08/26 09:38:03;;;;;;;0.50;0.50;;;;;;;16.61;78.20;99143.39;1689572;82;21130;-52
2021/08/26 09:40:33;;;;;;;2.50;0.50;;;;;;;16.62;78.29;99150.06;1682369;82;21013;-52
2021/08/26 09:43:04;;;;;;;0.40;0.40;;;;;;;16.64;78.47;99141.30;1660129;84;20962;-52
2021/08/26 09:45:36;;;;;;;0.85;0.40;;;;;;;16.67;78.40;99140.20;1692960;82;20965;-52
2021/08/26 09:48:13;;;;;;;0.60;0.42;;;;;;;16.69;78.27;99142.27;1691394;82;20991;-53
2021/08/26 09:50:53;;;;;;;0.40;0.40;;;;;;;16.71;78.13;99136.22;1688080;82;21289;-53
2021/08/26 09:53:25;;;;;;;0.65;0.40;;;;;;;16.70;78.14;99127.69;1687804;82;21057;-52
2021/08/26 09:56:05;;;;;;;0.30;0.30;;;;;;;16.70;78.04;99130.41;1692521;84;20902;-52
2021/08/26 09:58:35;;;;;;;0.30;0.30;;;;;;;16.71;78.13;99128.55;1689116;82;21080;-53
2021/08/26 10:01:13;;;;;;;0.30;0.30;;;;;;;16.73;77.86;99122.02;1686636;82;21120;-53
2021/08/26 10:03:41;;;;;;;0.25;0.20;;;;;;;16.74;77.81;99122.88;1687836;82;23061;-53
2021/08/26 10:06:07;;;;;;;0.30;0.30;;;;;;;16.75;77.86;99117.81;1695333;83;21001;-53
2021/08/26 10:08:34;;;;;;;0.30;0.30;;;;;;;16.77;77.84;99122.11;1696105;82;21520;-53
2021/08/26 10:11:01;;;;;;;0.20;0.20;;;;;;;16.78;77.90;99119.77;1689966;82;21707;-53
2021/08/26 10:13:30;;;;;;;0.20;0.20;;;;;;;16.81;77.84;99122.73;1693870;82;21065;-52
2021/08/26 10:15:58;;;;;;;0.20;0.20;;;;;;;16.81;77.91;99127.67;1692759;82;21163;-52
2021/08/26 10:18:24;;;;;;;0.20;0.20;;;;;;;16.82;78.04;99126.69;1691217;83;21089;-53
2021/08/26 10:20:51;;;;;;;0.25;0.20;;;;;;;16.84;77.76;99132.00;1692428;83;21064;-52
2021/08/26 10:23:17;;;;;;;0.20;0.20;;;;;;;16.84;77.75;99134.72;1683345;84;21066;-53
2021/08/26 10:25:44;;;;;;;0.93;0.30;;;;;;;16.85;77.67;99144.56;1692038;82;21509;-52
2021/08/26 10:28:10;;;;;;;0.30;0.30;;;;;;;16.81;77.62;99139.91;1682184;84;21962;-52
2021/08/26 10:30:39;;;;;;;0.20;0.20;;;;;;;16.77;77.71;99134.34;1692746;82;21439;-52
2021/08/26 10:33:09;;;;;;;0.20;0.20;;;;;;;16.77;77.69;99134.83;1660090;83;21106;-52
2021/08/26 10:35:58;;;;;;;0.20;0.20;;;;;;;16.77;77.64;99123.96;1668148;83;20991;-52
2021/08/26 10:38:30;;;;;;;0.60;0.23;;;;;;;16.77;77.68;99119.88;1664606;83;20953;-52
2021/08/26 10:40:58;;;;;;;0.20;0.20;;;;;;;16.78;77.90;99121.61;1685009;84;21932;-52
2021/08/26 10:43:38;;;;;;;0.37;0.28;;;;;;;16.81;77.83;99126.31;1688717;83;22526;-52
2021/08/26 10:46:10;;;;;;;0.20;0.20;;;;;;;16.85;77.89;99129.62;1674326;84;21081;-52
2021/08/26 10:48:37;;;;;;;0.20;0.20;;;;;;;16.88;77.66;99117.14;1679548;83;21603;-52
2021/08/26 10:51:12;;;;;;;0.30;0.30;;;;;;;16.92;77.48;99119.48;1682215;84;21005;-52
2021/08/26 10:53:40;;;;;;;0.30;0.30;;;;;;;16.94;77.42;99115.25;1682321;83;21082;-52
2021/08/26 10:56:23;;;;;;;0.20;0.20;;;;;;;16.97;77.21;99109.08;1679108;83;21152;-52
2021/08/26 10:58:54;;;;;;;0.25;0.25;;;;;;;17.02;77.34;99108.17;1682163;83;20951;-52
2021/08/26 11:01:35;;;;;;;0.20;0.20;;;;;;;17.09;77.34;99105.83;1678476;83;20947;-52
2021/08/26 11:04:27;;;;;;;0.30;0.20;;;;;;;17.15;77.32;99113.45;1683204;84;21367;-52
2021/08/26 11:06:52;;;;;;;0.10;0.10;;;;;;;17.21;77.24;99108.84;1672217;84;21099;-52
2021/08/26 11:09:27;;;;;;;0.20;0.20;;;;;;;17.28;77.02;99107.31;1678636;83;21011;-50
2021/08/26 11:11:59;;;;;;;0.30;0.30;;;;;;;17.35;76.44;99104.42;1691078;83;21492;-50
2021/08/26 11:14:25;;;;;;;0.23;0.23;;;;;;;17.39;76.27;99109.13;1681778;84;20998;-50
2021/08/26 11:16:55;;;;;;;0.30;0.30;;;;;;;17.40;76.19;99100.83;1681617;83;21021;-51
2021/08/26 11:19:30;;;;;;;0.15;0.15;;;;;;;17.42;75.85;99101.20;1704307;82;21470;-50
2021/08/26 11:22:00;;;;;;;0.20;0.20;;;;;;;17.43;75.37;99105.65;1705805;82;20946;-53
2021/08/26 11:24:38;;;;;;;0.20;0.20;;;;;;;17.42;75.16;99102.56;1672676;83;20969;-53
2021/08/26 11:27:17;;;;;;;0.20;0.10;;;;;;;17.42;75.29;99099.34;1679231;83;21447;-53
2021/08/26 11:29:44;;;;;;;0.20;0.20;;;;;;;17.43;75.18;99096.13;1703801;82;20921;-53
2021/08/26 11:32:13;;;;;;;0.20;0.20;;;;;;;17.45;74.96;99094.98;1706841;82;22160;-53
2021/08/26 11:34:48;;;;;;;0.37;0.10;;;;;;;17.49;74.87;99099.17;1702125;82;20913;-53
2021/08/26 11:37:23;;;;;;;0.20;0.20;;;;;;;17.50;74.42;99098.18;1724449;82;20977;-53
2021/08/26 11:40:07;;;;;;;0.20;0.20;;;;;;;17.50;74.36;99092.73;1708786;82;21093;-53
2021/08/26 11:42:47;;;;;;;0.10;0.10;;;;;;;17.50;74.07;99096.82;1702622;82;21576;-53
2021/08/26 11:45:23;;;;;;;1.37;0.10;;;;;;;17.51;74.32;99100.41;1678416;83;22197;-53
2021/08/26 11:47:58;;;;;;;1.00;0.20;;;;;;;17.50;74.66;99102.27;1667860;83;21099;-53